This is the latest recevied weather packets stored in our database for station/object M0HPP-13. If no packets are shown the sender has not sent any weather packets the latest 10 day(s).
| Time | Temp. | Humidity | Pressure | Rain* | Wind** | Luminosity | Snow |
|---|---|---|---|---|---|---|---|
| 1787434086 | 12.22° C | 92% | 1023.5 hPa | 0 mm | - | 0 W/m² | - |
| 1787433486 | 12.78° C | 90% | 1023.3 hPa | 0 mm | - | 0 W/m² | - |
| 1787432886 | 13.33° C | 90% | 1023.4 hPa | 0 mm | - | 0 W/m² | - |
| 1787432286 | 13.33° C | 91% | 1023.3 hPa | 0 mm | - | 0 W/m² | - |
| 1787431686 | 13.33° C | 90% | 1023.4 hPa | 0 mm | - | 0 W/m² | - |
| 1787431086 | 13.33° C | 89% | 1023.3 hPa | 0 mm | - | 0 W/m² | - |
| 1787430486 | 13.33° C | 88% | 1023.3 hPa | 0 mm | - | 0 W/m² | - |
| 1787429886 | 13.33° C | 87% | 1023.3 hPa | 0 mm | - | 0 W/m² | - |
| 1787429286 | 13.33° C | 87% | 1023.3 hPa | 0 mm | - | 0 W/m² | - |
| 1787428686 | 13.33° C | 87% | 1023.2 hPa | 0 mm | - | 1 W/m² | - |
| 1787428086 | 13.33° C | 88% | 1023.2 hPa | 0 mm | - | 2 W/m² | - |
| 1787427486 | 13.33° C | 88% | 1023.2 hPa | 0 mm | - | 5 W/m² | - |
| 1787426886 | 13.33° C | 87% | 1023 hPa | 0 mm | - | 10 W/m² | - |
| 1787426286 | 13.33° C | 87% | 1023 hPa | 0 mm | - | 15 W/m² | - |
| 1787425686 | 13.33° C | 87% | 1023 hPa | 0 mm | - | 19 W/m² | - |
| 1787425086 | 13.33° C | 87% | 1022.9 hPa | 0 mm | - | 22 W/m² | - |
| 1787424486 | 13.89° C | 84% | 1022.8 hPa | 0 mm | - | 34 W/m² | - |
| 1787423886 | 14.44° C | 82% | 1022.9 hPa | 0 mm | - | 41 W/m² | - |
| 1787423286 | 15° C | 79% | 1022.7 hPa | 0 mm | - | 71 W/m² | - |
| 1787422686 | 15° C | 79% | 1022.6 hPa | 0 mm | - | 99 W/m² | - |
| 1787422086 | 14.44° C | 81% | 1022.7 hPa | 0 mm | - | 87 W/m² | - |
| 1787421486 | 15° C | 78% | 1022.7 hPa | 0 mm | - | 61 W/m² | - |
| 1787420886 | 15° C | 78% | 1022.6 hPa | 0 mm | - | 136 W/m² | - |
| 1787420286 | 15.56° C | 75% | 1022.6 hPa | 0 mm | - | 139 W/m² | - |
| 1787419686 | 16.11° C | 74% | 1022.6 hPa | 0 mm | - | 157 W/m² | - |
* Rain latest hour (hover to see other rain measurements)
** Current wind speed in m/s (hover to see current wind gust speed)